createdAt,value
2017-09-29T00:02:01.257Z,29.43
2017-09-29T00:04:29.687Z,29.47
2017-09-29T00:06:58.013Z,31.57
2017-09-29T00:09:26.327Z,32.53
2017-09-29T00:11:55.629Z,34.10
2017-09-29T00:14:25.695Z,31.93
2017-09-29T00:16:58.161Z,32.10
2017-09-29T00:19:28.612Z,29.90
2017-09-29T00:21:56.969Z,32.23
2017-09-29T00:24:25.966Z,33.27
2017-09-29T00:26:54.293Z,33.00
2017-09-29T00:29:22.678Z,32.03
2017-09-29T00:31:52.366Z,32.43
2017-09-29T00:34:21.653Z,34.40
2017-09-29T00:36:51.807Z,32.30
2017-09-29T00:39:20.155Z,32.20
2017-09-29T00:41:48.925Z,33.37
2017-09-29T00:44:17.725Z,33.77
2017-09-29T00:46:46.067Z,33.63
2017-09-29T00:49:15.169Z,33.40
2017-09-29T00:51:44.376Z,32.43
2017-09-29T00:54:12.954Z,30.53
2017-09-29T00:56:42.081Z,31.30
2017-09-29T00:59:11.427Z,32.47
2017-09-29T01:01:40.182Z,30.63
2017-09-29T01:04:08.511Z,33.40
2017-09-29T01:06:37.347Z,30.77
2017-09-29T01:09:06.461Z,32.70
2017-09-29T01:11:34.824Z,34.40
2017-09-29T01:14:03.208Z,36.33
2017-09-29T01:16:31.543Z,36.77
2017-09-29T01:18:59.904Z,39.23
2017-09-29T01:21:29.106Z,35.10
2017-09-29T01:23:58.230Z,35.83
2017-09-29T01:26:26.828Z,35.00
2017-09-29T01:28:55.353Z,35.07
2017-09-29T01:31:24.555Z,33.77
2017-09-29T01:33:54.092Z,33.27
2017-09-29T01:36:22.481Z,33.20
2017-09-29T01:38:50.812Z,34.20
2017-09-29T01:41:19.180Z,32.80
2017-09-29T01:43:47.602Z,34.00
2017-09-29T01:46:15.955Z,33.30
2017-09-29T01:48:45.052Z,37.80
2017-09-29T01:51:14.346Z,37.27
2017-09-29T01:53:42.677Z,33.53
2017-09-29T01:56:11.200Z,34.07
2017-09-29T01:58:39.849Z,35.20
2017-09-29T02:01:08.190Z,39.30
2017-09-29T02:03:36.549Z,38.67
2017-09-29T02:06:05.694Z,34.37
2017-09-29T02:08:34.061Z,34.80
2017-09-29T02:11:02.406Z,32.70
2017-09-29T02:13:30.810Z,32.00
2017-09-29T02:15:59.133Z,35.87
2017-09-29T02:18:27.489Z,34.00
2017-09-29T02:20:56.219Z,32.50
2017-09-29T02:23:24.566Z,32.07
2017-09-29T02:25:52.942Z,33.17
2017-09-29T02:28:21.390Z,32.47
2017-09-29T02:30:49.781Z,35.23
2017-09-29T02:33:18.138Z,37.60
2017-09-29T02:35:47.739Z,37.30
2017-09-29T02:38:16.130Z,39.17
2017-09-29T02:40:44.497Z,38.23
2017-09-29T02:43:13.019Z,40.20
2017-09-29T02:45:41.767Z,40.70
2017-09-29T02:48:10.112Z,40.97
2017-09-29T02:50:38.510Z,38.10
2017-09-29T02:53:07.647Z,38.97
2017-09-29T02:55:36.062Z,38.60
2017-09-29T02:58:06.236Z,38.97
2017-09-29T03:00:38.399Z,39.00
2017-09-29T03:03:08.532Z,40.07
2017-09-29T03:05:37.602Z,39.57
2017-09-29T03:08:06.190Z,40.10
2017-09-29T03:10:34.598Z,38.87
2017-09-29T03:13:02.934Z,41.27
2017-09-29T03:15:32.053Z,39.03
2017-09-29T03:18:00.967Z,40.60
2017-09-29T03:20:29.403Z,39.63
2017-09-29T03:22:58.528Z,42.23
2017-09-29T03:25:26.976Z,38.17
2017-09-29T03:27:56.089Z,39.37
2017-09-29T03:30:24.453Z,37.60
2017-09-29T03:32:53.698Z,38.47
2017-09-29T03:35:22.043Z,40.57
2017-09-29T03:37:51.205Z,38.20
2017-09-29T03:40:19.690Z,37.87
2017-09-29T03:42:48.087Z,37.90
2017-09-29T03:45:17.271Z,36.50
2017-09-29T03:47:46.494Z,38.90
2017-09-29T03:50:16.960Z,38.27
2017-09-29T03:52:46.714Z,40.47
2017-09-29T03:55:18.956Z,42.80
2017-09-29T03:57:48.333Z,40.90
2017-09-29T04:00:16.693Z,40.40
2017-09-29T04:02:45.108Z,40.40
2017-09-29T04:05:13.910Z,37.47
2017-09-29T04:07:42.281Z,39.07
2017-09-29T04:10:10.665Z,38.70
2017-09-29T04:12:39.028Z,39.13
2017-09-29T04:15:07.717Z,38.00
2017-09-29T04:17:36.296Z,37.60
2017-09-29T04:20:05.452Z,36.17
2017-09-29T04:22:33.781Z,39.37
2017-09-29T04:25:02.455Z,40.43
2017-09-29T04:27:30.885Z,42.23
2017-09-29T04:29:59.790Z,49.10
2017-09-29T04:32:28.191Z,44.97
2017-09-29T04:34:56.509Z,42.70
2017-09-29T04:37:24.838Z,42.60
2017-09-29T04:39:53.867Z,44.70
2017-09-29T04:42:22.244Z,47.77
2017-09-29T04:44:50.589Z,42.13
2017-09-29T04:47:19.058Z,44.83
2017-09-29T04:49:47.406Z,40.83
2017-09-29T04:52:16.497Z,40.80
2017-09-29T04:54:45.144Z,40.60
2017-09-29T04:57:13.537Z,38.57
2017-09-29T04:59:41.905Z,38.70
2017-09-29T05:02:10.424Z,34.30
2017-09-29T05:04:38.742Z,35.03
2017-09-29T05:07:07.859Z,34.23
2017-09-29T05:09:36.249Z,34.80
2017-09-29T05:12:04.619Z,33.10
2017-09-29T05:14:32.935Z,32.97
2017-09-29T05:17:02.268Z,35.10
2017-09-29T05:19:32.211Z,33.40
2017-09-29T05:22:01.035Z,37.43
2017-09-29T05:24:29.766Z,37.73
2017-09-29T05:26:58.119Z,38.60
2017-09-29T05:29:27.108Z,39.33
2017-09-29T05:31:57.199Z,39.53
2017-09-29T05:34:25.658Z,40.80
2017-09-29T05:36:55.182Z,44.60
2017-09-29T05:39:23.665Z,38.23
2017-09-29T05:41:52.097Z,43.63
2017-09-29T05:44:21.206Z,39.50
2017-09-29T05:46:49.594Z,36.13
2017-09-29T05:49:17.956Z,43.63
2017-09-29T05:51:46.290Z,38.00
2017-09-29T05:54:16.474Z,39.60
2017-09-29T05:56:44.808Z,43.70
2017-09-29T05:59:13.371Z,39.80
2017-09-29T06:01:42.762Z,37.10
2017-09-29T06:04:11.089Z,42.00
2017-09-29T06:06:39.421Z,40.60
2017-09-29T06:09:08.650Z,39.97
2017-09-29T06:11:37.058Z,42.20
2017-09-29T06:14:05.426Z,37.97
2017-09-29T06:16:33.989Z,41.57
2017-09-29T06:19:02.313Z,40.03
2017-09-29T06:21:30.672Z,37.50
2017-09-29T06:23:59.237Z,38.67
2017-09-29T06:26:27.614Z,36.70
2017-09-29T06:28:55.951Z,36.40
2017-09-29T06:31:25.308Z,32.07
2017-09-29T06:33:54.426Z,34.43
2017-09-29T06:36:23.329Z,32.50
2017-09-29T06:38:52.180Z,32.57
2017-09-29T06:41:20.515Z,34.87
2017-09-29T06:43:48.971Z,35.37
2017-09-29T06:46:17.380Z,32.47
2017-09-29T06:48:46.481Z,33.50
2017-09-29T06:51:16.078Z,36.80
2017-09-29T06:53:45.225Z,39.33
2017-09-29T06:56:13.611Z,41.40
2017-09-29T06:58:41.954Z,37.97
2017-09-29T07:01:11.830Z,35.10
2017-09-29T07:03:40.182Z,35.00
2017-09-29T07:06:08.522Z,31.40
2017-09-29T07:08:36.945Z,34.30
2017-09-29T07:11:05.393Z,32.90
2017-09-29T07:13:33.786Z,30.97
2017-09-29T07:16:02.597Z,33.70
2017-09-29T07:18:30.948Z,34.43
2017-09-29T07:20:59.279Z,32.90
2017-09-29T07:23:27.648Z,31.53
2017-09-29T07:25:57.800Z,30.90
2017-09-29T07:28:26.530Z,30.30
2017-09-29T07:30:57.236Z,33.00
2017-09-29T07:33:26.420Z,30.97
2017-09-29T07:35:55.563Z,32.70
2017-09-29T07:38:24.154Z,31.70
2017-09-29T07:40:53.323Z,28.23
2017-09-29T07:43:21.662Z,29.00
2017-09-29T07:45:51.008Z,30.47
2017-09-29T07:48:19.353Z,31.63
2017-09-29T07:50:48.455Z,30.47
2017-09-29T07:53:16.921Z,30.70
2017-09-29T07:55:45.686Z,34.27
2017-09-29T07:58:14.959Z,33.77
2017-09-29T08:00:43.359Z,31.20
2017-09-29T08:03:11.719Z,30.67
2017-09-29T08:05:42.666Z,31.83
2017-09-29T08:08:11.285Z,30.37
2017-09-29T08:10:40.401Z,33.00
2017-09-29T08:13:08.918Z,34.20
2017-09-29T08:15:37.410Z,32.77
2017-09-29T08:18:05.777Z,31.83
2017-09-29T08:20:34.145Z,31.90
2017-09-29T08:23:02.843Z,29.27
2017-09-29T08:25:31.273Z,30.33
2017-09-29T08:28:00.368Z,29.63
2017-09-29T08:30:29.644Z,29.07
2017-09-29T08:32:58.008Z,30.17
2017-09-29T08:35:26.367Z,29.70
2017-09-29T08:37:55.645Z,29.90
2017-09-29T08:40:24.844Z,30.53
2017-09-29T08:42:53.222Z,30.90
2017-09-29T08:45:21.846Z,31.83
2017-09-29T08:47:50.351Z,31.40
2017-09-29T08:50:18.740Z,32.03
2017-09-29T08:52:47.902Z,28.57
2017-09-29T08:55:16.313Z,30.20
2017-09-29T08:57:44.684Z,31.50
2017-09-29T09:00:13.195Z,31.90
2017-09-29T09:02:41.729Z,28.30
2017-09-29T09:05:10.075Z,28.80
2017-09-29T09:07:38.722Z,34.00
2017-09-29T09:10:07.193Z,34.10
2017-09-29T09:12:36.364Z,31.80
2017-09-29T09:15:04.782Z,29.30
2017-09-29T09:17:33.976Z,29.17
2017-09-29T09:20:02.475Z,33.10
2017-09-29T09:22:30.860Z,35.90
2017-09-29T09:24:59.217Z,34.03
2017-09-29T09:27:27.771Z,30.40
2017-09-29T09:29:57.230Z,32.80
2017-09-29T09:32:25.733Z,34.57
2017-09-29T09:34:54.143Z,33.23
2017-09-29T09:37:22.999Z,33.50
2017-09-29T09:39:52.727Z,30.40
2017-09-29T09:42:22.427Z,31.40
2017-09-29T09:44:51.968Z,30.17
2017-09-29T09:47:21.128Z,30.43
2017-09-29T09:49:49.635Z,27.33
2017-09-29T09:52:18.277Z,30.80
2017-09-29T09:54:46.658Z,30.23
2017-09-29T09:57:15.899Z,31.80
2017-09-29T09:59:45.164Z,28.07
2017-09-29T10:02:13.584Z,30.90
2017-09-29T10:04:42.112Z,25.40
2017-09-29T10:07:10.611Z,25.73
2017-09-29T10:09:39.943Z,24.30
2017-09-29T10:12:09.079Z,22.40
2017-09-29T10:14:37.555Z,23.90
2017-09-29T10:17:07.386Z,22.03
2017-09-29T10:19:35.824Z,24.90
2017-09-29T10:22:04.380Z,24.20
2017-09-29T10:24:33.769Z,23.50
2017-09-29T10:27:02.280Z,21.50
2017-09-29T10:29:30.912Z,21.57
2017-09-29T10:31:59.361Z,18.37
2017-09-29T10:34:27.779Z,16.70
2017-09-29T10:36:56.280Z,19.50
2017-09-29T10:39:24.660Z,19.40
2017-09-29T10:41:53.105Z,17.37
2017-09-29T10:44:21.752Z,15.20
2017-09-29T10:46:50.999Z,13.67
2017-09-29T10:49:19.407Z,15.60
2017-09-29T10:51:49.299Z,11.23
2017-09-29T10:54:17.748Z,12.60
2017-09-29T10:56:46.154Z,11.23
2017-09-29T10:59:14.789Z,11.03
2017-09-29T11:01:43.955Z,11.50
2017-09-29T11:04:12.317Z,10.40
2017-09-29T11:06:40.875Z,11.43
2017-09-29T11:09:09.908Z,10.97
2017-09-29T11:11:39.188Z,9.40
2017-09-29T11:14:08.705Z,9.70
2017-09-29T11:16:38.188Z,10.83
2017-09-29T11:19:06.876Z,9.90
2017-09-29T11:21:37.120Z,10.20
2017-09-29T11:24:05.634Z,11.27
2017-09-29T11:26:34.878Z,11.03
2017-09-29T11:29:03.317Z,10.40
2017-09-29T11:31:34.616Z,9.77
2017-09-29T11:34:03.042Z,10.57
2017-09-29T11:36:32.649Z,9.43
2017-09-29T11:39:01.837Z,9.50
2017-09-29T11:41:31.389Z,10.17
2017-09-29T11:44:00.676Z,11.57
2017-09-29T11:46:29.093Z,9.83
2017-09-29T11:48:57.467Z,12.07
2017-09-29T11:51:26.130Z,10.60
2017-09-29T11:53:54.930Z,10.83
2017-09-29T11:56:23.470Z,9.80
2017-09-29T11:58:54.066Z,9.80
2017-09-29T12:01:23.228Z,11.47
2017-09-29T12:03:51.641Z,10.93
2017-09-29T12:06:20.113Z,10.20
2017-09-29T12:08:48.926Z,9.17
2017-09-29T12:11:18.792Z,9.43
2017-09-29T12:13:47.336Z,9.50
2017-09-29T12:16:16.465Z,8.13
2017-09-29T12:18:44.858Z,9.33
2017-09-29T12:21:14.495Z,8.83
2017-09-29T12:23:43.754Z,10.17
2017-09-29T12:26:12.942Z,10.67
2017-09-29T12:28:41.474Z,11.00
2017-09-29T12:31:11.284Z,11.73
2017-09-29T12:33:39.810Z,11.90
2017-09-29T12:36:08.254Z,9.70
2017-09-29T12:38:36.729Z,13.07
2017-09-29T12:41:05.244Z,10.53
2017-09-29T12:43:34.705Z,11.33
2017-09-29T12:46:03.139Z,10.07
2017-09-29T12:48:31.552Z,10.70
2017-09-29T12:51:00.087Z,10.80
2017-09-29T12:53:28.511Z,10.23
2017-09-29T12:55:57.295Z,10.40
2017-09-29T12:58:25.874Z,11.50
2017-09-29T13:00:54.976Z,10.80
2017-09-29T13:03:23.430Z,11.13
2017-09-29T13:05:51.895Z,9.57
2017-09-29T13:08:20.340Z,11.03
2017-09-29T13:10:49.221Z,9.63
2017-09-29T13:13:19.789Z,9.87
2017-09-29T13:15:49.182Z,9.70
2017-09-29T13:18:18.415Z,10.40
2017-09-29T13:20:46.993Z,8.43
2017-09-29T13:23:15.867Z,10.07
2017-09-29T13:25:44.285Z,9.73
2017-09-29T13:28:13.603Z,8.93
2017-09-29T13:30:42.003Z,8.57
2017-09-29T13:33:10.367Z,9.20
2017-09-29T13:35:39.163Z,9.43
2017-09-29T13:38:07.723Z,9.40
2017-09-29T13:40:36.195Z,9.73
2017-09-29T13:43:05.409Z,9.90
2017-09-29T13:45:36.366Z,8.93
2017-09-29T13:48:05.050Z,9.70
2017-09-29T13:50:33.844Z,9.30
2017-09-29T13:53:02.304Z,9.23
2017-09-29T13:55:30.744Z,8.53
2017-09-29T13:57:59.579Z,8.07
2017-09-29T14:00:27.968Z,9.10
2017-09-29T14:02:57.394Z,9.47
2017-09-29T14:05:26.625Z,8.00
2017-09-29T14:07:55.057Z,9.20
2017-09-29T14:10:24.445Z,8.73
2017-09-29T14:12:54.125Z,7.60
2017-09-29T14:15:23.562Z,7.90
2017-09-29T14:17:51.988Z,8.50
2017-09-29T14:20:20.709Z,8.70
2017-09-29T14:22:49.141Z,9.33
2017-09-29T14:25:17.579Z,8.67
2017-09-29T14:27:46.546Z,8.13
2017-09-29T14:30:14.986Z,9.60
2017-09-29T14:32:43.388Z,8.90
2017-09-29T14:35:12.983Z,8.80
2017-09-29T14:37:41.641Z,8.50
2017-09-29T14:40:11.571Z,8.20
2017-09-29T14:42:39.989Z,8.97
2017-09-29T14:45:08.391Z,8.57
2017-09-29T14:47:37.622Z,8.50
2017-09-29T14:50:07.209Z,9.10
2017-09-29T14:52:36.464Z,8.57
2017-09-29T14:55:04.827Z,8.53
2017-09-29T14:57:33.402Z,9.87
2017-09-29T15:00:02.586Z,8.70
2017-09-29T15:02:31.115Z,8.37
2017-09-29T15:05:00.248Z,8.20
2017-09-29T15:07:29.408Z,8.00
2017-09-29T15:09:58.170Z,7.63
2017-09-29T15:12:26.656Z,8.73
2017-09-29T15:14:55.083Z,7.80
2017-09-29T15:17:23.485Z,8.40
2017-09-29T15:19:53.034Z,8.03
2017-09-29T15:22:21.482Z,9.30
2017-09-29T15:24:49.834Z,7.50
2017-09-29T15:27:19.676Z,8.60
2017-09-29T15:29:48.062Z,8.20
2017-09-29T15:32:16.603Z,7.67
2017-09-29T15:34:45.040Z,7.70
2017-09-29T15:37:13.469Z,7.93
2017-09-29T15:39:42.904Z,7.87
2017-09-29T15:42:12.008Z,7.93
2017-09-29T15:44:40.394Z,8.17
2017-09-29T15:47:10.634Z,7.47
2017-09-29T15:49:39.251Z,7.90
2017-09-29T15:52:07.785Z,7.20
2017-09-29T15:54:38.396Z,7.33
2017-09-29T15:57:07.036Z,7.10
2017-09-29T15:59:35.743Z,7.70
2017-09-29T16:02:05.912Z,7.97
2017-09-29T16:04:37.614Z,7.27
2017-09-29T16:07:06.177Z,8.37
2017-09-29T16:09:34.550Z,7.90
2017-09-29T16:12:05.205Z,8.20
2017-09-29T16:14:33.608Z,8.43
2017-09-29T16:17:03.185Z,8.80
2017-09-29T16:19:31.823Z,7.80
2017-09-29T16:22:00.245Z,7.90
2017-09-29T16:24:28.643Z,8.00
2017-09-29T16:26:57.158Z,8.20
2017-09-29T16:29:27.177Z,8.73
2017-09-29T16:31:55.554Z,8.10
2017-09-29T16:34:24.012Z,7.87
2017-09-29T16:36:53.143Z,8.97
2017-09-29T16:39:21.527Z,9.30
2017-09-29T16:41:50.255Z,8.80
2017-09-29T16:44:20.366Z,8.77
2017-09-29T16:46:49.528Z,8.87
2017-09-29T16:49:18.441Z,8.50
2017-09-29T16:51:46.808Z,7.40
2017-09-29T16:54:15.234Z,9.13
2017-09-29T16:56:45.272Z,8.27
2017-09-29T16:59:15.115Z,8.93
2017-09-29T17:01:43.590Z,9.40
2017-09-29T17:04:13.601Z,7.50
2017-09-29T17:06:42.097Z,7.57
2017-09-29T17:09:11.482Z,8.67
2017-09-29T17:11:40.750Z,9.10
2017-09-29T17:14:09.187Z,8.30
2017-09-29T17:16:37.568Z,10.37
2017-09-29T17:19:06.107Z,8.33
2017-09-29T17:21:34.524Z,9.20
2017-09-29T17:24:02.992Z,9.43
2017-09-29T17:26:32.461Z,8.77
2017-09-29T17:29:01.707Z,8.80
2017-09-29T17:31:31.012Z,8.83
2017-09-29T17:34:00.745Z,7.77
2017-09-29T17:36:30.852Z,9.87
2017-09-29T17:38:59.665Z,9.20
2017-09-29T17:41:29.281Z,9.23
2017-09-29T17:43:57.690Z,8.47
2017-09-29T17:46:26.382Z,9.13
2017-09-29T17:48:56.677Z,10.97
2017-09-29T17:51:26.004Z,11.57
2017-09-29T17:53:55.479Z,11.10
2017-09-29T17:56:25.090Z,12.03
2017-09-29T17:58:54.045Z,11.30
2017-09-29T18:01:22.798Z,11.87
2017-09-29T18:03:51.577Z,9.87
2017-09-29T18:06:20.073Z,10.00
2017-09-29T18:08:48.489Z,12.13
2017-09-29T18:11:19.073Z,11.33
2017-09-29T18:13:48.408Z,10.93
2017-09-29T18:16:17.639Z,11.30
2017-09-29T18:18:46.082Z,10.37
2017-09-29T18:21:14.857Z,11.57
2017-09-29T18:23:43.289Z,10.40
2017-09-29T18:26:12.028Z,10.67
2017-09-29T18:28:40.467Z,10.07
2017-09-29T18:31:08.854Z,10.73
2017-09-29T18:33:37.857Z,10.67
2017-09-29T18:36:06.256Z,12.07
2017-09-29T18:38:34.631Z,10.57
2017-09-29T18:41:04.165Z,10.30
2017-09-29T18:43:33.379Z,12.33
2017-09-29T18:49:05.417Z,10.43
2017-09-29T18:51:34.043Z,12.93
2017-09-29T18:54:03.232Z,11.60
2017-09-29T18:56:32.384Z,13.13
2017-09-29T18:59:02.133Z,14.30
2017-09-29T19:01:32.043Z,14.27
2017-09-29T19:04:01.189Z,14.43
2017-09-29T19:06:30.447Z,14.60
2017-09-29T19:08:59.694Z,14.50
2017-09-29T19:11:28.148Z,13.13
2017-09-29T19:13:57.830Z,15.50
2017-09-29T19:16:26.323Z,13.20
2017-09-29T19:18:56.233Z,12.53
2017-09-29T19:21:25.496Z,13.90
2017-09-29T19:23:53.951Z,13.83
2017-09-29T19:26:22.411Z,14.73
2017-09-29T19:28:51.009Z,14.13
2017-09-29T19:31:19.466Z,13.00
2017-09-29T19:33:48.448Z,13.10
2017-09-29T19:36:17.687Z,13.43
2017-09-29T19:38:46.092Z,13.83
2017-09-29T19:41:15.680Z,13.70
2017-09-29T19:43:44.144Z,13.17
2017-09-29T19:46:13.146Z,15.10
2017-09-29T19:48:42.433Z,14.60
2017-09-29T19:51:11.258Z,13.73
2017-09-29T19:53:39.657Z,13.70
2017-09-29T19:56:09.271Z,13.87
2017-09-29T19:58:38.840Z,13.63
2017-09-29T20:01:07.247Z,14.37
2017-09-29T20:03:35.720Z,14.37
2017-09-29T20:06:04.151Z,13.07
2017-09-29T20:08:33.215Z,14.60
2017-09-29T20:11:03.539Z,16.27
2017-09-29T20:13:33.642Z,18.13
2017-09-29T20:16:02.914Z,18.43
2017-09-29T20:18:33.337Z,21.37
2017-09-29T20:21:01.742Z,19.83
2017-09-29T20:23:30.506Z,19.90
2017-09-29T20:26:00.625Z,19.37
2017-09-29T20:28:29.453Z,17.53
2017-09-29T20:30:58.814Z,15.97
2017-09-29T20:33:27.288Z,15.17
2017-09-29T20:35:56.802Z,16.40
2017-09-29T20:38:26.026Z,15.27
2017-09-29T20:40:57.209Z,16.30
2017-09-29T20:43:26.447Z,16.27
2017-09-29T20:45:54.897Z,16.63
2017-09-29T20:48:23.885Z,16.70
2017-09-29T20:50:52.907Z,19.43
2017-09-29T20:53:22.064Z,17.27
2017-09-29T20:55:51.252Z,17.97
2017-09-29T20:58:20.438Z,16.30
2017-09-29T21:00:48.918Z,17.80
2017-09-29T21:03:17.366Z,19.23
2017-09-29T21:05:45.805Z,18.73
2017-09-29T21:08:14.158Z,17.97
2017-09-29T21:10:42.967Z,18.73
2017-09-29T21:13:11.844Z,17.37
2017-09-29T21:15:40.211Z,17.70
2017-09-29T21:18:08.736Z,18.53
2017-09-29T21:20:37.949Z,18.50
2017-09-29T21:23:06.380Z,18.10
2017-09-29T21:25:35.140Z,21.03
2017-09-29T21:28:04.394Z,19.23
2017-09-29T21:30:32.840Z,19.67
2017-09-29T21:33:03.190Z,21.27
2017-09-29T21:35:31.643Z,20.23
2017-09-29T21:38:00.156Z,20.70
2017-09-29T21:40:29.475Z,22.70
2017-09-29T21:42:57.879Z,21.40
2017-09-29T21:45:26.284Z,22.53
2017-09-29T21:47:54.691Z,20.40
2017-09-29T21:50:23.852Z,21.17
2017-09-29T21:52:53.599Z,20.20
2017-09-29T21:55:22.903Z,22.00
2017-09-29T21:57:52.071Z,20.20
2017-09-29T22:00:21.167Z,18.90
2017-09-29T22:02:50.147Z,20.97
2017-09-29T22:05:21.136Z,22.30
2017-09-29T22:07:49.517Z,21.63
2017-09-29T22:10:18.049Z,22.60
2017-09-29T22:12:46.527Z,25.47
2017-09-29T22:15:15.864Z,27.13
2017-09-29T22:17:44.325Z,25.00
2017-09-29T22:20:12.732Z,29.90
2017-09-29T22:22:42.411Z,29.73
2017-09-29T22:25:11.634Z,27.13
2017-09-29T22:27:41.122Z,25.10
2017-09-29T22:30:10.316Z,22.70
2017-09-29T22:32:40.396Z,24.97
2017-09-29T22:35:08.753Z,20.90
2017-09-29T22:37:37.137Z,20.83
2017-09-29T22:40:06.609Z,25.03
2017-09-29T22:42:35.798Z,27.80
2017-09-29T22:45:05.236Z,25.40
2017-09-29T22:47:33.694Z,25.57
2017-09-29T22:50:02.850Z,28.07
2017-09-29T22:52:31.294Z,26.53
2017-09-29T22:55:00.654Z,24.87
2017-09-29T22:57:29.111Z,31.60
2017-09-29T22:59:58.159Z,30.03
2017-09-29T23:02:26.809Z,33.27
2017-09-29T23:04:55.400Z,29.73
2017-09-29T23:07:24.616Z,29.33
2017-09-29T23:09:53.095Z,29.67
2017-09-29T23:12:22.277Z,31.37
2017-09-29T23:14:51.623Z,31.57
2017-09-29T23:17:20.122Z,32.77
2017-09-29T23:19:48.869Z,31.20
2017-09-29T23:22:17.242Z,30.07
2017-09-29T23:24:46.674Z,33.00
2017-09-29T23:27:15.031Z,32.23
2017-09-29T23:29:43.448Z,33.00
2017-09-29T23:32:12.891Z,31.47
2017-09-29T23:34:42.208Z,31.10
2017-09-29T23:37:11.878Z,31.87
2017-09-29T23:39:40.332Z,33.50
2017-09-29T23:42:10.763Z,31.60
2017-09-29T23:44:41.114Z,30.87
2017-09-29T23:47:11.046Z,32.73
2017-09-29T23:49:40.350Z,35.67
2017-09-29T23:52:10.587Z,34.90
2017-09-29T23:54:39.923Z,33.27
2017-09-29T23:57:09.068Z,35.43
2017-09-29T23:59:38.550Z,35.23
